sensor_id;sensor_type;location;lat;lon;timestamp;P1;durP1;ratioP1;P2;durP2;ratioP2
14396;SDS011;50653;47.810;13.022;2023-04-03T00:02:17;8.17;;;7.57;;
14396;SDS011;50653;47.810;13.022;2023-04-03T00:04:43;8.83;;;8.13;;
14396;SDS011;50653;47.810;13.022;2023-04-03T00:07:08;7.77;;;7.20;;
14396;SDS011;50653;47.810;13.022;2023-04-03T00:09:34;7.50;;;6.97;;
14396;SDS011;50653;47.810;13.022;2023-04-03T00:12:00;7.70;;;7.13;;
14396;SDS011;50653;47.810;13.022;2023-04-03T00:14:26;10.60;;;8.20;;
14396;SDS011;50653;47.810;13.022;2023-04-03T00:16:52;10.30;;;6.87;;
14396;SDS011;50653;47.810;13.022;2023-04-03T00:19:18;9.13;;;8.27;;
14396;SDS011;50653;47.810;13.022;2023-04-03T00:21:44;8.97;;;8.03;;
14396;SDS011;50653;47.810;13.022;2023-04-03T00:24:10;9.63;;;8.77;;
14396;SDS011;50653;47.810;13.022;2023-04-03T00:26:36;8.77;;;8.00;;
14396;SDS011;50653;47.810;13.022;2023-04-03T00:29:02;7.93;;;7.43;;
14396;SDS011;50653;47.810;13.022;2023-04-03T00:31:28;7.17;;;6.60;;
14396;SDS011;50653;47.810;13.022;2023-04-03T00:33:54;7.90;;;7.20;;
14396;SDS011;50653;47.810;13.022;2023-04-03T00:36:19;7.90;;;7.33;;
14396;SDS011;50653;47.810;13.022;2023-04-03T00:38:45;7.83;;;7.23;;
14396;SDS011;50653;47.810;13.022;2023-04-03T00:41:11;7.00;;;6.47;;
14396;SDS011;50653;47.810;13.022;2023-04-03T00:43:37;8.00;;;7.40;;
14396;SDS011;50653;47.810;13.022;2023-04-03T00:46:03;6.63;;;6.13;;
14396;SDS011;50653;47.810;13.022;2023-04-03T00:48:33;7.07;;;6.67;;
14396;SDS011;50653;47.810;13.022;2023-04-03T00:51:05;6.30;;;5.80;;
14396;SDS011;50653;47.810;13.022;2023-04-03T00:56:32;7.07;;;6.47;;
14396;SDS011;50653;47.810;13.022;2023-04-03T01:01:29;15.60;;;6.80;;
14396;SDS011;50653;47.810;13.022;2023-04-03T01:03:55;7.70;;;6.90;;
14396;SDS011;50653;47.810;13.022;2023-04-03T01:06:26;6.83;;;6.40;;
14396;SDS011;50653;47.810;13.022;2023-04-03T01:08:57;5.83;;;5.47;;
14396;SDS011;50653;47.810;13.022;2023-04-03T01:11:24;7.47;;;6.97;;
14396;SDS011;50653;47.810;13.022;2023-04-03T01:13:50;7.07;;;6.63;;
14396;SDS011;50653;47.810;13.022;2023-04-03T01:16:16;6.03;;;5.60;;
14396;SDS011;50653;47.810;13.022;2023-04-03T01:18:43;7.30;;;6.70;;
14396;SDS011;50653;47.810;13.022;2023-04-03T01:23:49;6.70;;;6.10;;
14396;SDS011;50653;47.810;13.022;2023-04-03T01:26:30;7.87;;;7.17;;
14396;SDS011;50653;47.810;13.022;2023-04-03T01:28:58;6.17;;;5.70;;
14396;SDS011;50653;47.810;13.022;2023-04-03T01:31:26;9.40;;;6.90;;
14396;SDS011;50653;47.810;13.022;2023-04-03T01:33:57;6.60;;;6.10;;
14396;SDS011;50653;47.810;13.022;2023-04-03T01:36:25;7.17;;;6.57;;
14396;SDS011;50653;47.810;13.022;2023-04-03T01:38:54;5.67;;;5.37;;
14396;SDS011;50653;47.810;13.022;2023-04-03T01:41:22;7.67;;;6.80;;
14396;SDS011;50653;47.810;13.022;2023-04-03T01:43:50;6.53;;;6.13;;
14396;SDS011;50653;47.810;13.022;2023-04-03T01:46:16;6.70;;;6.20;;
14396;SDS011;50653;47.810;13.022;2023-04-03T01:48:42;6.23;;;5.73;;
14396;SDS011;50653;47.810;13.022;2023-04-03T01:51:08;7.30;;;6.80;;
14396;SDS011;50653;47.810;13.022;2023-04-03T01:53:34;8.67;;;7.83;;
14396;SDS011;50653;47.810;13.022;2023-04-03T01:56:00;7.30;;;6.77;;
14396;SDS011;50653;47.810;13.022;2023-04-03T01:58:27;7.67;;;7.07;;
14396;SDS011;50653;47.810;13.022;2023-04-03T02:00:53;7.97;;;7.30;;
14396;SDS011;50653;47.810;13.022;2023-04-03T02:03:19;7.93;;;7.20;;
14396;SDS011;50653;47.810;13.022;2023-04-03T02:05:45;8.20;;;7.60;;
14396;SDS011;50653;47.810;13.022;2023-04-03T02:08:11;7.43;;;6.93;;
14396;SDS011;50653;47.810;13.022;2023-04-03T02:10:38;9.00;;;8.30;;
14396;SDS011;50653;47.810;13.022;2023-04-03T02:13:04;8.07;;;7.17;;
14396;SDS011;50653;47.810;13.022;2023-04-03T02:15:30;8.07;;;7.30;;
14396;SDS011;50653;47.810;13.022;2023-04-03T02:17:56;8.30;;;7.40;;
14396;SDS011;50653;47.810;13.022;2023-04-03T02:20:23;8.47;;;7.87;;
14396;SDS011;50653;47.810;13.022;2023-04-03T02:22:48;9.73;;;8.93;;
14396;SDS011;50653;47.810;13.022;2023-04-03T02:25:14;7.30;;;6.70;;
14396;SDS011;50653;47.810;13.022;2023-04-03T02:27:42;8.87;;;8.13;;
14396;SDS011;50653;47.810;13.022;2023-04-03T02:30:08;12.07;;;7.70;;
14396;SDS011;50653;47.810;13.022;2023-04-03T02:32:36;8.07;;;7.57;;
14396;SDS011;50653;47.810;13.022;2023-04-03T02:35:03;9.30;;;8.33;;
14396;SDS011;50653;47.810;13.022;2023-04-03T02:37:30;8.93;;;8.23;;
14396;SDS011;50653;47.810;13.022;2023-04-03T02:39:57;8.50;;;7.90;;
14396;SDS011;50653;47.810;13.022;2023-04-03T02:42:23;9.50;;;7.57;;
14396;SDS011;50653;47.810;13.022;2023-04-03T02:44:50;8.50;;;7.87;;
14396;SDS011;50653;47.810;13.022;2023-04-03T02:47:18;8.07;;;7.50;;
14396;SDS011;50653;47.810;13.022;2023-04-03T02:49:44;9.40;;;8.60;;
14396;SDS011;50653;47.810;13.022;2023-04-03T02:52:12;9.60;;;8.70;;
14396;SDS011;50653;47.810;13.022;2023-04-03T02:54:38;9.17;;;8.33;;
14396;SDS011;50653;47.810;13.022;2023-04-03T02:57:07;9.40;;;8.60;;
14396;SDS011;50653;47.810;13.022;2023-04-03T02:59:35;8.00;;;7.40;;
14396;SDS011;50653;47.810;13.022;2023-04-03T03:02:08;9.50;;;8.60;;
14396;SDS011;50653;47.810;13.022;2023-04-03T03:04:34;8.67;;;7.93;;
14396;SDS011;50653;47.810;13.022;2023-04-03T03:07:01;9.53;;;8.73;;
14396;SDS011;50653;47.810;13.022;2023-04-03T03:09:27;9.60;;;8.80;;
14396;SDS011;50653;47.810;13.022;2023-04-03T03:11:55;9.83;;;8.93;;
14396;SDS011;50653;47.810;13.022;2023-04-03T03:14:23;9.03;;;8.13;;
14396;SDS011;50653;47.810;13.022;2023-04-03T03:16:49;9.40;;;8.70;;
14396;SDS011;50653;47.810;13.022;2023-04-03T03:19:15;8.97;;;8.20;;
14396;SDS011;50653;47.810;13.022;2023-04-03T03:21:42;9.77;;;8.90;;
14396;SDS011;50653;47.810;13.022;2023-04-03T03:24:08;9.63;;;8.77;;
14396;SDS011;50653;47.810;13.022;2023-04-03T03:26:34;10.30;;;9.30;;
14396;SDS011;50653;47.810;13.022;2023-04-03T03:29:01;9.50;;;8.80;;
14396;SDS011;50653;47.810;13.022;2023-04-03T03:31:28;10.90;;;9.90;;
14396;SDS011;50653;47.810;13.022;2023-04-03T03:33:54;10.37;;;9.37;;
14396;SDS011;50653;47.810;13.022;2023-04-03T03:36:21;10.37;;;9.47;;
14396;SDS011;50653;47.810;13.022;2023-04-03T03:38:47;10.30;;;9.33;;
14396;SDS011;50653;47.810;13.022;2023-04-03T03:41:13;11.83;;;9.90;;
14396;SDS011;50653;47.810;13.022;2023-04-03T03:43:41;12.10;;;11.03;;
14396;SDS011;50653;47.810;13.022;2023-04-03T03:46:07;11.50;;;10.57;;
14396;SDS011;50653;47.810;13.022;2023-04-03T03:48:36;10.83;;;9.80;;
14396;SDS011;50653;47.810;13.022;2023-04-03T03:51:02;9.87;;;8.87;;
14396;SDS011;50653;47.810;13.022;2023-04-03T03:53:33;11.00;;;9.30;;
14396;SDS011;50653;47.810;13.022;2023-04-03T03:56:04;11.83;;;10.73;;
14396;SDS011;50653;47.810;13.022;2023-04-03T03:58:31;14.47;;;9.93;;
14396;SDS011;50653;47.810;13.022;2023-04-03T04:01:00;10.70;;;9.77;;
14396;SDS011;50653;47.810;13.022;2023-04-03T04:03:32;12.17;;;11.03;;
14396;SDS011;50653;47.810;13.022;2023-04-03T04:05:58;9.90;;;9.10;;
14396;SDS011;50653;47.810;13.022;2023-04-03T04:08:24;12.47;;;9.37;;
14396;SDS011;50653;47.810;13.022;2023-04-03T04:10:50;10.27;;;9.30;;
14396;SDS011;50653;47.810;13.022;2023-04-03T04:13:17;8.77;;;7.97;;
14396;SDS011;50653;47.810;13.022;2023-04-03T04:15:44;9.10;;;8.30;;
14396;SDS011;50653;47.810;13.022;2023-04-03T04:18:11;9.63;;;8.83;;
14396;SDS011;50653;47.810;13.022;2023-04-03T04:20:40;9.53;;;8.70;;
14396;SDS011;50653;47.810;13.022;2023-04-03T04:23:07;9.20;;;8.40;;
14396;SDS011;50653;47.810;13.022;2023-04-03T04:25:35;9.90;;;9.10;;
14396;SDS011;50653;47.810;13.022;2023-04-03T04:28:02;9.63;;;8.80;;
14396;SDS011;50653;47.810;13.022;2023-04-03T04:30:28;10.10;;;8.83;;
14396;SDS011;50653;47.810;13.022;2023-04-03T04:32:55;11.03;;;10.00;;
14396;SDS011;50653;47.810;13.022;2023-04-03T04:35:21;11.13;;;10.10;;
14396;SDS011;50653;47.810;13.022;2023-04-03T04:37:49;11.70;;;10.57;;
14396;SDS011;50653;47.810;13.022;2023-04-03T04:40:19;11.13;;;10.13;;
14396;SDS011;50653;47.810;13.022;2023-04-03T04:42:45;10.93;;;9.83;;
14396;SDS011;50653;47.810;13.022;2023-04-03T04:45:14;11.97;;;10.93;;
14396;SDS011;50653;47.810;13.022;2023-04-03T04:47:43;12.90;;;11.80;;
14396;SDS011;50653;47.810;13.022;2023-04-03T04:50:17;14.03;;;12.30;;
14396;SDS011;50653;47.810;13.022;2023-04-03T04:52:43;12.70;;;11.50;;
14396;SDS011;50653;47.810;13.022;2023-04-03T04:55:09;13.00;;;11.80;;
14396;SDS011;50653;47.810;13.022;2023-04-03T04:57:35;17.37;;;11.83;;
14396;SDS011;50653;47.810;13.022;2023-04-03T05:00:04;14.10;;;12.77;;
14396;SDS011;50653;47.810;13.022;2023-04-03T05:02:31;14.30;;;12.00;;
14396;SDS011;50653;47.810;13.022;2023-04-03T05:04:57;12.20;;;11.10;;
14396;SDS011;50653;47.810;13.022;2023-04-03T05:07:27;14.93;;;12.60;;
14396;SDS011;50653;47.810;13.022;2023-04-03T05:09:56;12.83;;;11.63;;
14396;SDS011;50653;47.810;13.022;2023-04-03T05:12:25;15.60;;;12.00;;
14396;SDS011;50653;47.810;13.022;2023-04-03T05:14:57;11.23;;;10.33;;
14396;SDS011;50653;47.810;13.022;2023-04-03T05:17:24;11.30;;;10.37;;
14396;SDS011;50653;47.810;13.022;2023-04-03T05:19:53;10.40;;;9.63;;
14396;SDS011;50653;47.810;13.022;2023-04-03T05:22:21;11.37;;;10.37;;
14396;SDS011;50653;47.810;13.022;2023-04-03T05:24:53;11.80;;;10.73;;
14396;SDS011;50653;47.810;13.022;2023-04-03T05:27:20;10.07;;;9.10;;
14396;SDS011;50653;47.810;13.022;2023-04-03T05:29:52;11.10;;;10.10;;
14396;SDS011;50653;47.810;13.022;2023-04-03T05:32:21;9.40;;;8.67;;
14396;SDS011;50653;47.810;13.022;2023-04-03T05:34:53;13.00;;;10.53;;
14396;SDS011;50653;47.810;13.022;2023-04-03T05:37:20;9.97;;;9.07;;
14396;SDS011;50653;47.810;13.022;2023-04-03T05:39:46;10.77;;;9.87;;
14396;SDS011;50653;47.810;13.022;2023-04-03T05:42:12;10.03;;;9.03;;
14396;SDS011;50653;47.810;13.022;2023-04-03T05:44:41;9.77;;;8.97;;
14396;SDS011;50653;47.810;13.022;2023-04-03T05:47:17;10.77;;;9.70;;
14396;SDS011;50653;47.810;13.022;2023-04-03T05:49:50;10.33;;;9.27;;
14396;SDS011;50653;47.810;13.022;2023-04-03T05:52:23;10.57;;;9.60;;
14396;SDS011;50653;47.810;13.022;2023-04-03T05:54:57;12.20;;;10.47;;
14396;SDS011;50653;47.810;13.022;2023-04-03T05:57:32;10.90;;;9.93;;
14396;SDS011;50653;47.810;13.022;2023-04-03T06:00:00;11.83;;;10.63;;
14396;SDS011;50653;47.810;13.022;2023-04-03T06:07:33;10.40;;;9.50;;
14396;SDS011;50653;47.810;13.022;2023-04-03T06:22:50;12.27;;;9.30;;
14396;SDS011;50653;47.810;13.022;2023-04-03T06:25:16;8.10;;;7.50;;
14396;SDS011;50653;47.810;13.022;2023-04-03T06:27:46;8.77;;;8.03;;
14396;SDS011;50653;47.810;13.022;2023-04-03T06:30:34;9.47;;;8.67;;
14396;SDS011;50653;47.810;13.022;2023-04-03T06:33:25;10.80;;;9.80;;
14396;SDS011;50653;47.810;13.022;2023-04-03T06:36:03;8.70;;;8.10;;
14396;SDS011;50653;47.810;13.022;2023-04-03T06:39:01;9.50;;;8.70;;
14396;SDS011;50653;47.810;13.022;2023-04-03T06:48:31;9.37;;;8.57;;
14396;SDS011;50653;47.810;13.022;2023-04-03T06:50:57;10.10;;;9.00;;
14396;SDS011;50653;47.810;13.022;2023-04-03T06:53:22;9.13;;;8.37;;
14396;SDS011;50653;47.810;13.022;2023-04-03T06:55:48;8.33;;;7.63;;
14396;SDS011;50653;47.810;13.022;2023-04-03T06:58:14;7.87;;;7.27;;
14396;SDS011;50653;47.810;13.022;2023-04-03T07:00:42;8.80;;;8.00;;
14396;SDS011;50653;47.810;13.022;2023-04-03T07:03:08;8.00;;;7.33;;
14396;SDS011;50653;47.810;13.022;2023-04-03T07:05:34;7.90;;;7.20;;
14396;SDS011;50653;47.810;13.022;2023-04-03T07:07:59;8.20;;;7.53;;
14396;SDS011;50653;47.810;13.022;2023-04-03T07:10:25;9.60;;;8.70;;
14396;SDS011;50653;47.810;13.022;2023-04-03T07:12:51;8.43;;;7.73;;
14396;SDS011;50653;47.810;13.022;2023-04-03T07:15:17;10.17;;;9.10;;
14396;SDS011;50653;47.810;13.022;2023-04-03T07:17:43;7.63;;;7.13;;
14396;SDS011;50653;47.810;13.022;2023-04-03T07:20:11;9.83;;;8.73;;
14396;SDS011;50653;47.810;13.022;2023-04-03T07:22:38;9.60;;;8.70;;
14396;SDS011;50653;47.810;13.022;2023-04-03T07:25:03;8.97;;;8.23;;
14396;SDS011;50653;47.810;13.022;2023-04-03T07:27:39;9.43;;;8.63;;
14396;SDS011;50653;47.810;13.022;2023-04-03T07:30:05;8.53;;;7.83;;
14396;SDS011;50653;47.810;13.022;2023-04-03T07:32:31;7.00;;;6.50;;
14396;SDS011;50653;47.810;13.022;2023-04-03T07:35:00;6.43;;;5.83;;
14396;SDS011;50653;47.810;13.022;2023-04-03T07:37:26;7.60;;;6.77;;
14396;SDS011;50653;47.810;13.022;2023-04-03T07:39:52;7.37;;;6.63;;
14396;SDS011;50653;47.810;13.022;2023-04-03T07:42:17;7.50;;;6.90;;
14396;SDS011;50653;47.810;13.022;2023-04-03T07:44:43;7.80;;;7.20;;
14396;SDS011;50653;47.810;13.022;2023-04-03T07:47:09;6.97;;;6.27;;
14396;SDS011;50653;47.810;13.022;2023-04-03T07:49:35;6.83;;;6.43;;
14396;SDS011;50653;47.810;13.022;2023-04-03T07:52:04;6.33;;;5.73;;
14396;SDS011;50653;47.810;13.022;2023-04-03T07:54:30;7.10;;;6.70;;
14396;SDS011;50653;47.810;13.022;2023-04-03T07:56:56;6.93;;;6.20;;
14396;SDS011;50653;47.810;13.022;2023-04-03T07:59:22;6.07;;;5.47;;
14396;SDS011;50653;47.810;13.022;2023-04-03T08:01:47;7.20;;;6.10;;
14396;SDS011;50653;47.810;13.022;2023-04-03T08:04:13;6.53;;;5.80;;
14396;SDS011;50653;47.810;13.022;2023-04-03T08:06:39;6.57;;;6.03;;
14396;SDS011;50653;47.810;13.022;2023-04-03T08:09:04;7.20;;;6.67;;
14396;SDS011;50653;47.810;13.022;2023-04-03T08:11:30;10.40;;;5.73;;
14396;SDS011;50653;47.810;13.022;2023-04-03T08:13:56;7.10;;;6.40;;
14396;SDS011;50653;47.810;13.022;2023-04-03T08:16:22;6.33;;;5.97;;
14396;SDS011;50653;47.810;13.022;2023-04-03T08:18:52;6.30;;;5.80;;
14396;SDS011;50653;47.810;13.022;2023-04-03T08:21:17;5.47;;;5.00;;
14396;SDS011;50653;47.810;13.022;2023-04-03T08:23:43;5.60;;;5.13;;
14396;SDS011;50653;47.810;13.022;2023-04-03T08:26:10;5.90;;;5.50;;
14396;SDS011;50653;47.810;13.022;2023-04-03T08:28:37;5.13;;;4.63;;
14396;SDS011;50653;47.810;13.022;2023-04-03T08:31:07;5.30;;;5.00;;
14396;SDS011;50653;47.810;13.022;2023-04-03T08:33:38;6.77;;;6.17;;
14396;SDS011;50653;47.810;13.022;2023-04-03T08:36:05;4.60;;;4.20;;
14396;SDS011;50653;47.810;13.022;2023-04-03T08:38:32;3.77;;;3.57;;
14396;SDS011;50653;47.810;13.022;2023-04-03T08:41:14;4.27;;;4.07;;
14396;SDS011;50653;47.810;13.022;2023-04-03T08:46:54;4.43;;;4.03;;
14396;SDS011;50653;47.810;13.022;2023-04-03T08:49:28;4.63;;;4.43;;
14396;SDS011;50653;47.810;13.022;2023-04-03T08:51:57;3.63;;;3.43;;
14396;SDS011;50653;47.810;13.022;2023-04-03T08:56:51;3.13;;;3.00;;
14396;SDS011;50653;47.810;13.022;2023-04-03T08:59:19;3.57;;;3.37;;
14396;SDS011;50653;47.810;13.022;2023-04-03T09:05:14;3.17;;;2.90;;
14396;SDS011;50653;47.810;13.022;2023-04-03T09:07:44;3.70;;;3.40;;
14396;SDS011;50653;47.810;13.022;2023-04-03T09:10:15;6.60;;;3.40;;
14396;SDS011;50653;47.810;13.022;2023-04-03T09:22:31;3.13;;;2.80;;
14396;SDS011;50653;47.810;13.022;2023-04-03T09:25:13;3.07;;;2.77;;
14396;SDS011;50653;47.810;13.022;2023-04-03T09:27:44;2.57;;;2.37;;
14396;SDS011;50653;47.810;13.022;2023-04-03T09:30:17;5.10;;;2.20;;
14396;SDS011;50653;47.810;13.022;2023-04-03T09:32:49;3.30;;;3.10;;
14396;SDS011;50653;47.810;13.022;2023-04-03T09:35:19;3.43;;;3.23;;
14396;SDS011;50653;47.810;13.022;2023-04-03T09:37:46;3.33;;;3.03;;
14396;SDS011;50653;47.810;13.022;2023-04-03T09:42:54;3.20;;;3.00;;
14396;SDS011;50653;47.810;13.022;2023-04-03T09:45:25;4.37;;;3.80;;
14396;SDS011;50653;47.810;13.022;2023-04-03T09:50:41;7.20;;;2.60;;
14396;SDS011;50653;47.810;13.022;2023-04-03T09:53:29;4.20;;;3.10;;
14396;SDS011;50653;47.810;13.022;2023-04-03T10:01:27;3.37;;;3.17;;
14396;SDS011;50653;47.810;13.022;2023-04-03T10:06:35;2.50;;;2.40;;
14396;SDS011;50653;47.810;13.022;2023-04-03T10:09:24;4.50;;;2.93;;
14396;SDS011;50653;47.810;13.022;2023-04-03T10:12:00;2.93;;;2.83;;
14396;SDS011;50653;47.810;13.022;2023-04-03T10:14:26;5.53;;;2.40;;
14396;SDS011;50653;47.810;13.022;2023-04-03T10:19:56;3.23;;;3.03;;
14396;SDS011;50653;47.810;13.022;2023-04-03T10:23:05;3.13;;;2.93;;
14396;SDS011;50653;47.810;13.022;2023-04-03T10:25:43;5.40;;;3.17;;
14396;SDS011;50653;47.810;13.022;2023-04-03T10:28:28;4.20;;;3.90;;
14396;SDS011;50653;47.810;13.022;2023-04-03T10:38:46;4.63;;;4.33;;
14396;SDS011;50653;47.810;13.022;2023-04-03T10:41:45;5.53;;;3.00;;
14396;SDS011;50653;47.810;13.022;2023-04-03T10:50:35;3.03;;;2.93;;
14396;SDS011;50653;47.810;13.022;2023-04-03T10:53:24;3.60;;;3.40;;
14396;SDS011;50653;47.810;13.022;2023-04-03T10:58:30;5.70;;;3.40;;
14396;SDS011;50653;47.810;13.022;2023-04-03T11:01:06;3.97;;;3.77;;
14396;SDS011;50653;47.810;13.022;2023-04-03T11:03:47;3.63;;;3.43;;
14396;SDS011;50653;47.810;13.022;2023-04-03T11:06:17;3.73;;;3.53;;
14396;SDS011;50653;47.810;13.022;2023-04-03T11:08:48;4.33;;;4.03;;
14396;SDS011;50653;47.810;13.022;2023-04-03T11:11:35;4.63;;;4.37;;
14396;SDS011;50653;47.810;13.022;2023-04-03T11:19:41;3.67;;;3.40;;
14396;SDS011;50653;47.810;13.022;2023-04-03T11:22:26;3.70;;;3.50;;
14396;SDS011;50653;47.810;13.022;2023-04-03T11:30:16;4.37;;;4.07;;
14396;SDS011;50653;47.810;13.022;2023-04-03T11:35:59;4.60;;;4.27;;
14396;SDS011;50653;47.810;13.022;2023-04-03T11:38:35;3.43;;;3.33;;
14396;SDS011;50653;47.810;13.022;2023-04-03T12:01:11;4.23;;;4.00;;
14396;SDS011;50653;47.810;13.022;2023-04-03T12:04:16;3.60;;;3.40;;
14396;SDS011;50653;47.810;13.022;2023-04-03T12:15:11;3.20;;;2.97;;
14396;SDS011;50653;47.810;13.022;2023-04-03T12:17:44;2.50;;;2.40;;
14396;SDS011;50653;47.810;13.022;2023-04-03T12:23:26;3.30;;;3.10;;
14396;SDS011;50653;47.810;13.022;2023-04-03T12:28:46;4.20;;;2.53;;
14396;SDS011;50653;47.810;13.022;2023-04-03T12:31:13;4.00;;;2.70;;
14396;SDS011;50653;47.810;13.022;2023-04-03T12:36:36;4.53;;;3.30;;
14396;SDS011;50653;47.810;13.022;2023-04-03T12:39:25;2.73;;;2.30;;
14396;SDS011;50653;47.810;13.022;2023-04-03T12:42:16;2.80;;;2.60;;
14396;SDS011;50653;47.810;13.022;2023-04-03T12:45:03;2.20;;;2.10;;
14396;SDS011;50653;47.810;13.022;2023-04-03T12:47:38;2.60;;;2.40;;
14396;SDS011;50653;47.810;13.022;2023-04-03T12:53:10;2.53;;;2.40;;
14396;SDS011;50653;47.810;13.022;2023-04-03T12:55:36;2.13;;;2.03;;
14396;SDS011;50653;47.810;13.022;2023-04-03T13:01:08;2.33;;;2.23;;
14396;SDS011;50653;47.810;13.022;2023-04-03T13:03:43;5.33;;;2.60;;
14396;SDS011;50653;47.810;13.022;2023-04-03T13:06:14;3.27;;;2.90;;
14396;SDS011;50653;47.810;13.022;2023-04-03T13:08:48;3.40;;;2.67;;
14396;SDS011;50653;47.810;13.022;2023-04-03T13:11:16;3.00;;;2.80;;
14396;SDS011;50653;47.810;13.022;2023-04-03T13:16:24;5.70;;;2.60;;
14396;SDS011;50653;47.810;13.022;2023-04-03T13:18:51;6.57;;;3.17;;
14396;SDS011;50653;47.810;13.022;2023-04-03T13:21:23;2.50;;;2.13;;
14396;SDS011;50653;47.810;13.022;2023-04-03T13:23:55;3.67;;;3.47;;
14396;SDS011;50653;47.810;13.022;2023-04-03T13:26:24;2.63;;;2.30;;
14396;SDS011;50653;47.810;13.022;2023-04-03T13:28:56;17.50;;;3.63;;
14396;SDS011;50653;47.810;13.022;2023-04-03T13:31:35;3.30;;;3.00;;
14396;SDS011;50653;47.810;13.022;2023-04-03T13:34:07;2.60;;;2.17;;
14396;SDS011;50653;47.810;13.022;2023-04-03T13:36:44;5.27;;;2.90;;
14396;SDS011;50653;47.810;13.022;2023-04-03T13:39:23;2.70;;;2.50;;
14396;SDS011;50653;47.810;13.022;2023-04-03T13:41:52;3.20;;;3.00;;
14396;SDS011;50653;47.810;13.022;2023-04-03T13:46:58;5.37;;;3.80;;
14396;SDS011;50653;47.810;13.022;2023-04-03T13:49:37;5.03;;;3.57;;
14396;SDS011;50653;47.810;13.022;2023-04-03T13:52:20;3.47;;;3.17;;
14396;SDS011;50653;47.810;13.022;2023-04-03T13:54:55;3.00;;;2.80;;
14396;SDS011;50653;47.810;13.022;2023-04-03T13:57:26;3.80;;;3.07;;
14396;SDS011;50653;47.810;13.022;2023-04-03T13:59:53;2.27;;;2.17;;
14396;SDS011;50653;47.810;13.022;2023-04-03T14:04:52;5.87;;;3.17;;
14396;SDS011;50653;47.810;13.022;2023-04-03T14:07:23;4.20;;;3.93;;
14396;SDS011;50653;47.810;13.022;2023-04-03T14:09:50;3.47;;;2.93;;
14396;SDS011;50653;47.810;13.022;2023-04-03T14:12:32;3.40;;;3.10;;
14396;SDS011;50653;47.810;13.022;2023-04-03T14:15:03;4.37;;;3.97;;
14396;SDS011;50653;47.810;13.022;2023-04-03T14:17:35;3.00;;;2.80;;
14396;SDS011;50653;47.810;13.022;2023-04-03T14:20:02;4.40;;;3.23;;
14396;SDS011;50653;47.810;13.022;2023-04-03T14:22:30;5.33;;;3.43;;
14396;SDS011;50653;47.810;13.022;2023-04-03T14:24:57;3.50;;;3.20;;
14396;SDS011;50653;47.810;13.022;2023-04-03T14:27:27;6.07;;;3.00;;
14396;SDS011;50653;47.810;13.022;2023-04-03T14:29:58;10.27;;;3.43;;
14396;SDS011;50653;47.810;13.022;2023-04-03T14:32:25;3.90;;;3.50;;
14396;SDS011;50653;47.810;13.022;2023-04-03T14:34:51;4.20;;;3.27;;
14396;SDS011;50653;47.810;13.022;2023-04-03T14:37:19;2.93;;;2.73;;
14396;SDS011;50653;47.810;13.022;2023-04-03T14:39:51;3.90;;;3.57;;
14396;SDS011;50653;47.810;13.022;2023-04-03T14:42:20;2.50;;;2.30;;
14396;SDS011;50653;47.810;13.022;2023-04-03T14:44:48;4.03;;;3.20;;
14396;SDS011;50653;47.810;13.022;2023-04-03T14:47:14;3.03;;;2.83;;
14396;SDS011;50653;47.810;13.022;2023-04-03T14:49:43;4.00;;;3.80;;
14396;SDS011;50653;47.810;13.022;2023-04-03T14:52:16;4.27;;;3.20;;
14396;SDS011;50653;47.810;13.022;2023-04-03T14:54:46;3.60;;;2.93;;
14396;SDS011;50653;47.810;13.022;2023-04-03T14:57:13;3.87;;;3.57;;
14396;SDS011;50653;47.810;13.022;2023-04-03T14:59:40;5.93;;;2.63;;
14396;SDS011;50653;47.810;13.022;2023-04-03T15:04:53;3.30;;;3.07;;
14396;SDS011;50653;47.810;13.022;2023-04-03T15:07:20;4.57;;;3.80;;
14396;SDS011;50653;47.810;13.022;2023-04-03T15:09:46;3.60;;;3.30;;
14396;SDS011;50653;47.810;13.022;2023-04-03T15:12:12;3.20;;;2.90;;
14396;SDS011;50653;47.810;13.022;2023-04-03T15:14:38;4.07;;;3.67;;
14396;SDS011;50653;47.810;13.022;2023-04-03T15:17:04;4.83;;;4.60;;
14396;SDS011;50653;47.810;13.022;2023-04-03T15:19:35;4.30;;;4.00;;
14396;SDS011;50653;47.810;13.022;2023-04-03T15:22:02;6.37;;;4.90;;
14396;SDS011;50653;47.810;13.022;2023-04-03T15:24:28;5.00;;;4.60;;
14396;SDS011;50653;47.810;13.022;2023-04-03T15:26:54;7.10;;;5.70;;
14396;SDS011;50653;47.810;13.022;2023-04-03T15:29:20;4.97;;;4.57;;
14396;SDS011;50653;47.810;13.022;2023-04-03T15:31:53;3.30;;;3.07;;
14396;SDS011;50653;47.810;13.022;2023-04-03T15:34:22;6.60;;;3.83;;
14396;SDS011;50653;47.810;13.022;2023-04-03T15:36:47;5.83;;;4.30;;
14396;SDS011;50653;47.810;13.022;2023-04-03T15:39:14;5.20;;;4.77;;
14396;SDS011;50653;47.810;13.022;2023-04-03T15:41:41;4.73;;;4.03;;
14396;SDS011;50653;47.810;13.022;2023-04-03T15:44:07;5.07;;;4.30;;
14396;SDS011;50653;47.810;13.022;2023-04-03T15:46:32;4.97;;;4.67;;
14396;SDS011;50653;47.810;13.022;2023-04-03T15:48:58;5.07;;;4.77;;
14396;SDS011;50653;47.810;13.022;2023-04-03T15:51:24;3.73;;;3.53;;
14396;SDS011;50653;47.810;13.022;2023-04-03T15:53:50;4.00;;;3.53;;
14396;SDS011;50653;47.810;13.022;2023-04-03T15:56:15;8.57;;;5.17;;
14396;SDS011;50653;47.810;13.022;2023-04-03T15:58:41;4.10;;;3.90;;
14396;SDS011;50653;47.810;13.022;2023-04-03T16:01:08;5.93;;;5.33;;
14396;SDS011;50653;47.810;13.022;2023-04-03T16:03:36;4.37;;;3.70;;
14396;SDS011;50653;47.810;13.022;2023-04-03T16:06:04;3.80;;;3.53;;
14396;SDS011;50653;47.810;13.022;2023-04-03T16:08:32;10.73;;;7.47;;
14396;SDS011;50653;47.810;13.022;2023-04-03T16:11:01;5.63;;;5.07;;
14396;SDS011;50653;47.810;13.022;2023-04-03T16:13:27;5.40;;;4.90;;
14396;SDS011;50653;47.810;13.022;2023-04-03T16:15:53;5.60;;;4.40;;
14396;SDS011;50653;47.810;13.022;2023-04-03T16:18:22;5.50;;;5.10;;
14396;SDS011;50653;47.810;13.022;2023-04-03T16:20:48;6.20;;;4.57;;
14396;SDS011;50653;47.810;13.022;2023-04-03T16:23:14;3.80;;;3.47;;
14396;SDS011;50653;47.810;13.022;2023-04-03T16:25:40;4.73;;;4.33;;
14396;SDS011;50653;47.810;13.022;2023-04-03T16:28:11;6.37;;;5.80;;
14396;SDS011;50653;47.810;13.022;2023-04-03T16:30:39;5.97;;;5.37;;
14396;SDS011;50653;47.810;13.022;2023-04-03T16:33:09;7.80;;;7.00;;
14396;SDS011;50653;47.810;13.022;2023-04-03T16:39:05;4.73;;;4.43;;
14396;SDS011;50653;47.810;13.022;2023-04-03T16:41:31;6.83;;;5.20;;
14396;SDS011;50653;47.810;13.022;2023-04-03T16:43:57;8.97;;;6.70;;
14396;SDS011;50653;47.810;13.022;2023-04-03T16:49:44;17.87;;;13.13;;
14396;SDS011;50653;47.810;13.022;2023-04-03T16:52:11;5.83;;;5.33;;
14396;SDS011;50653;47.810;13.022;2023-04-03T16:54:50;4.73;;;4.40;;
14396;SDS011;50653;47.810;13.022;2023-04-03T17:05:19;6.27;;;4.70;;
14396;SDS011;50653;47.810;13.022;2023-04-03T17:12:07;11.37;;;3.60;;
14396;SDS011;50653;47.810;13.022;2023-04-03T17:14:33;3.03;;;2.70;;
14396;SDS011;50653;47.810;13.022;2023-04-03T17:16:59;2.93;;;2.73;;
14396;SDS011;50653;47.810;13.022;2023-04-03T17:19:24;5.00;;;2.20;;
14396;SDS011;50653;47.810;13.022;2023-04-03T17:21:51;6.33;;;3.23;;
14396;SDS011;50653;47.810;13.022;2023-04-03T17:24:17;2.23;;;2.10;;
14396;SDS011;50653;47.810;13.022;2023-04-03T17:26:43;2.37;;;2.27;;
14396;SDS011;50653;47.810;13.022;2023-04-03T17:29:09;3.80;;;3.50;;
14396;SDS011;50653;47.810;13.022;2023-04-03T17:39:09;3.47;;;2.83;;
14396;SDS011;50653;47.810;13.022;2023-04-03T17:45:21;2.70;;;2.50;;
14396;SDS011;50653;47.810;13.022;2023-04-03T18:20:21;3.07;;;2.87;;